.
WxDataArchive / Data Records for 2015-07-22
2015-07-21 July 2015 2015-07-23

Data Records for Wednesday, 22 July 2015

Time	Temp	Chill	HIndex	Humid	Dewpt	 Wind 	HiWind	WindDir	Rain 	Barom
-----	----	-----	------	-----	-----	------	------	-------	-----	-----
00:00	64.2	64.2	64.2	66	52.6	0	0	---	0.00	29.888 
00:05	64.2	64.2	64.2	67	53.0	0	0	---	0.00	29.888 
00:10	64.0	64.0	64.0	67	52.8	0	0	---	0.00	29.888 
00:15	63.9	63.9	63.9	67	52.7	0	0	---	0.00	29.891 
00:20	63.7	63.7	63.7	68	52.9	0	0	---	0.00	29.891 
00:25	63.7	63.7	63.7	69	53.3	0	0	---	0.00	29.891 
00:30	63.5	63.5	63.5	68	52.7	0	0	---	0.00	29.889 
00:35	63.5	63.5	63.5	68	52.7	0	1	292	0.00	29.889 
00:40	63.5	63.5	63.5	68	52.7	0	1	292	0.00	29.889 
00:45	63.5	63.5	63.5	68	52.7	0	1	292	0.00	29.891 
00:50	63.4	63.4	63.4	69	53.0	0	0	---	0.00	29.891 
00:55	63.4	63.4	63.4	69	53.0	0	1	292	0.00	29.891 
01:00	63.4	63.4	63.4	69	53.0	0	1	292	0.00	29.893 
01:05	63.2	63.2	63.2	70	53.2	0	0	---	0.00	29.893 
01:10	63.1	63.1	63.1	70	53.2	0	0	---	0.00	29.893 
01:15	62.9	62.9	62.9	71	53.3	0	0	---	0.00	29.893 
01:20	62.7	62.7	62.7	71	53.2	0	1	292	0.00	29.893 
01:25	62.6	62.6	62.6	72	53.4	0	1	292	0.00	29.893 
01:30	62.6	62.6	62.6	73	53.8	0	0	---	0.00	29.896 
01:35	62.4	62.4	62.4	73	53.6	0	0	---	0.00	29.896 
01:40	62.4	62.4	62.4	73	53.6	0	1	292	0.00	29.896 
01:45	62.4	62.4	62.4	73	53.6	0	1	292	0.00	29.895 
01:50	62.4	62.4	62.4	72	53.2	0	1	292	0.00	29.895 
01:55	62.6	62.6	62.6	72	53.4	0	0	---	0.00	29.895 
02:00	62.6	62.6	62.6	72	53.4	0	0	---	0.00	29.898 
02:05	62.6	62.6	62.6	73	53.8	0	1	292	0.00	29.898 
02:10	62.6	62.6	62.6	73	53.8	0	0	---	0.00	29.898 
02:15	62.4	62.4	62.4	74	54.0	0	0	---	0.00	29.895 
02:20	62.3	62.3	62.3	74	53.9	0	0	---	0.00	29.895 
02:25	62.0	62.0	62.0	75	54.0	0	0	---	0.00	29.895 
02:30	61.6	61.6	61.6	75	53.6	0	0	---	0.00	29.901 
02:35	61.3	61.3	61.3	76	53.7	0	0	---	0.00	29.901 
02:40	61.0	61.0	61.0	77	53.7	0	0	---	0.00	29.901 
02:45	60.7	60.7	60.7	78	53.8	0	0	---	0.00	29.901 
02:50	60.4	60.4	60.4	79	53.9	0	0	---	0.00	29.901 
02:55	60.1	60.1	60.1	80	53.9	0	0	---	0.00	29.901 
03:00	59.9	59.9	59.9	80	53.7	0	0	---	0.00	29.906 
03:05	59.6	59.6	59.6	81	53.8	0	0	---	0.00	29.906 
03:10	59.5	59.5	59.5	81	53.7	0	0	---	0.00	29.906 
03:15	59.3	59.3	59.3	82	53.8	0	0	---	0.00	29.908 
03:20	59.2	59.2	59.2	83	54.0	0	0	---	0.00	29.908 
03:25	58.9	58.9	58.9	83	53.7	0	0	---	0.00	29.908 
03:30	58.7	58.7	58.7	84	53.9	0	0	---	0.00	29.903 
03:35	58.4	58.4	58.4	84	53.6	0	0	---	0.00	29.903 
03:40	58.4	58.4	58.4	85	53.9	0	0	---	0.00	29.903 
03:45	58.3	58.3	58.3	85	53.8	0	0	---	0.00	29.908 
03:50	58.1	58.1	58.1	85	53.6	0	0	---	0.00	29.908 
03:55	58.0	58.0	58.0	86	53.8	0	0	---	0.00	29.908 
04:00	58.0	58.0	58.0	86	53.8	0	0	---	0.00	29.911 
04:05	57.8	57.8	57.8	86	53.6	0	0	---	0.00	29.911 
04:10	57.6	57.6	57.6	87	53.8	0	0	---	0.00	29.911 
04:15	57.5	57.5	57.5	87	53.7	0	0	---	0.00	29.911 
04:20	57.5	57.5	57.5	88	54.0	0	0	---	0.00	29.911 
04:25	57.5	57.5	57.5	88	54.0	0	0	---	0.00	29.911 
04:30	57.3	57.3	57.3	88	53.8	0	0	---	0.00	29.910 
04:35	57.2	57.2	57.2	88	53.7	0	0	---	0.00	29.910 
04:40	57.2	57.2	57.2	88	53.7	0	0	---	0.00	29.910 
04:45	57.2	57.2	57.2	88	53.7	0	0	---	0.00	29.911 
04:50	57.0	57.0	57.0	88	53.5	0	0	---	0.00	29.911 
04:55	56.9	56.9	56.9	89	53.7	0	0	---	0.00	29.911 
05:00	56.9	56.9	56.9	89	53.7	0	0	---	0.00	29.912 
05:05	56.9	56.9	56.9	89	53.7	0	0	---	0.00	29.912 
05:10	56.7	56.7	56.7	89	53.5	0	0	---	0.00	29.912 
05:15	56.7	56.7	56.7	89	53.5	0	0	---	0.00	29.915 
05:20	56.6	56.6	56.6	89	53.4	0	0	---	0.00	29.915 
05:25	56.6	56.6	56.6	90	53.7	0	0	---	0.00	29.915 
05:30	56.7	56.7	56.7	90	53.8	0	0	---	0.00	29.917 
05:35	56.7	56.7	56.7	90	53.8	0	0	---	0.00	29.917 
05:40	56.7	56.7	56.7	90	53.8	0	0	---	0.00	29.917 
05:45	56.7	56.7	56.7	90	53.8	0	0	---	0.00	29.918 
05:50	56.6	56.6	56.6	90	53.7	0	0	---	0.00	29.918 
05:55	56.5	56.5	56.5	90	53.6	0	0	---	0.00	29.918 
06:00	56.5	56.5	56.5	90	53.6	0	0	---	0.00	29.924 
06:05	56.3	56.3	56.3	90	53.4	0	0	---	0.00	29.924 
06:10	56.3	56.3	56.3	90	53.4	0	0	---	0.00	29.924 
06:15	56.2	56.2	56.2	90	53.3	0	0	---	0.00	29.930 
06:20	56.2	56.2	56.2	90	53.3	0	0	---	0.00	29.930 
06:25	56.0	56.0	56.0	90	53.1	0	0	---	0.00	29.930 
06:30	56.0	56.0	56.0	90	53.1	0	0	---	0.00	29.931 
06:35	55.9	55.9	55.9	91	53.3	0	0	---	0.00	29.931 
06:40	55.9	55.9	55.9	91	53.3	0	0	---	0.00	29.931 
06:45	55.9	55.9	55.9	91	53.3	0	0	---	0.00	29.931 
06:50	55.9	55.9	55.9	91	53.3	0	0	---	0.00	29.931 
06:55	56.0	56.0	56.0	91	53.4	0	0	---	0.00	29.931 
07:00	56.0	56.0	56.0	92	53.7	0	0	---	0.00	29.930 
07:05	56.2	56.2	56.2	92	53.9	0	0	---	0.00	29.930 
07:10	56.2	56.2	56.2	92	53.9	0	0	---	0.00	29.930 
07:15	56.3	56.3	56.3	92	54.0	0	0	---	0.00	29.932 
07:20	56.6	56.6	56.6	92	54.3	0	0	---	0.00	29.932 
07:25	56.7	56.7	56.7	92	54.4	0	0	---	0.00	29.932 
07:30	57.0	57.0	57.0	92	54.7	0	0	---	0.00	29.931 
07:35	57.5	57.5	57.5	92	55.2	0	0	---	0.00	29.931 
07:40	57.8	57.8	57.8	92	55.5	0	0	---	0.00	29.931 
07:45	58.4	58.4	58.4	92	56.1	0	0	---	0.00	29.932 
07:50	59.2	59.2	59.2	91	56.6	0	0	---	0.00	29.932 
07:55	59.9	59.9	59.9	90	57.0	0	0	---	0.00	29.932 
08:00	60.7	60.7	60.7	88	57.1	0	0	---	0.00	29.934 
08:05	61.6	61.6	61.6	85	57.0	0	0	---	0.00	29.934 
08:10	62.6	62.6	62.6	81	56.7	0	0	---	0.00	29.934 
08:15	63.2	63.2	63.2	77	55.9	0	1	292	0.00	29.940 
08:20	63.9	63.9	63.9	74	55.4	0	1	292	0.00	29.940 
08:25	64.5	64.5	64.5	74	56.0	0	0	---	0.00	29.940 
08:30	65.6	65.6	65.6	73	56.7	0	1	202	0.00	29.940 
08:35	66.8	66.8	66.8	70	56.7	0	0	---	0.00	29.940 
08:40	67.8	67.8	67.8	67	56.4	0	1	202	0.00	29.940 
08:45	67.8	67.8	67.8	65	55.6	0	1	202	0.00	29.940 
08:50	68.1	68.1	68.1	66	56.3	0	1	202	0.00	29.940 
08:55	68.8	68.8	68.8	63	55.7	0	0	---	0.00	29.940 
09:00	68.9	68.9	68.9	60	54.4	0	0	---	0.00	29.942 
09:05	69.3	69.3	69.3	62	55.7	0	0	---	0.00	29.942 
09:10	70.3	70.3	70.3	60	55.7	0	0	---	0.00	29.942 
09:15	70.8	70.8	70.8	59	55.7	0	1	202	0.00	29.947 
09:20	70.9	70.9	70.9	59	55.8	0	1	202	0.00	29.947 
09:25	71.3	71.3	71.3	59	56.2	0	1	202	0.00	29.947 
09:30	72.1	72.1	72.1	58	56.5	0	1	202	0.00	29.946 
09:35	72.5	72.5	72.5	58	56.9	0	1	202	0.00	29.946 
09:40	72.8	72.8	72.8	53	54.7	0	1	315	0.00	29.946 
09:45	72.5	72.5	72.5	52	53.9	0	1	315	0.00	29.943 
09:50	72.7	72.7	72.7	52	54.0	0	1	315	0.00	29.943 
09:55	72.7	72.7	72.7	50	53.0	0	1	315	0.00	29.943 
10:00	73.9	73.9	73.9	47	52.4	0	1	315	0.00	29.942 
10:05	74.4	74.4	74.4	49	54.0	0	1	315	0.00	29.942 
10:10	74.6	74.6	74.6	49	54.2	0	1	315	0.00	29.942 
10:15	74.2	74.2	74.2	47	52.7	0	2	315	0.00	29.943 
10:20	74.2	74.2	74.2	48	53.2	0	1	315	0.00	29.943 
10:25	74.9	74.9	74.9	49	54.4	0	1	315	0.00	29.943 
10:30	75.4	75.4	77.8	46	53.2	0	1	315	0.00	29.946 
10:35	75.4	75.4	77.8	48	54.3	0	1	315	0.00	29.946 
10:40	75.4	75.4	77.8	47	53.7	0	1	315	0.00	29.946 
10:45	76.1	76.1	78.1	47	54.4	0	2	315	0.00	29.945 
10:50	75.8	75.8	77.8	43	51.7	0	2	315	0.00	29.945 
10:55	75.8	75.8	77.8	43	51.7	0	2	292	0.00	29.945 
11:00	75.8	75.8	77.8	42	51.1	1	2	292	0.00	29.945 
11:05	76.0	76.0	77.9	43	51.9	0	2	292	0.00	29.945 
11:10	76.3	76.3	78.2	47	54.6	0	1	292	0.00	29.945 
11:15	76.3	76.3	78.2	47	54.6	1	3	292	0.00	29.951 
11:20	76.3	76.3	78.1	44	52.8	0	1	292	0.00	29.951 
11:25	76.7	76.7	78.3	46	54.3	0	2	292	0.00	29.951 
11:30	76.7	76.7	78.3	44	53.1	0	2	292	0.00	29.951 
11:35	77.0	77.0	78.5	46	54.6	0	2	292	0.00	29.951 
11:40	77.2	77.2	78.5	45	54.2	0	2	292	0.00	29.951 
11:45	77.6	77.6	78.7	44	53.9	0	2	292	0.00	29.952 
11:50	77.6	77.6	78.7	44	53.9	1	4	292	0.00	29.952 
11:55	77.0	77.0	78.4	44	53.4	0	4	292	0.00	29.952 
12:00	77.0	77.0	78.4	43	52.8	0	3	292	0.00	29.946 
12:05	77.4	77.4	78.6	45	54.4	0	2	292	0.00	29.946 
12:10	77.7	77.7	78.8	45	54.6	0	3	292	0.00	29.946 
12:15	77.9	77.9	79.0	46	55.4	1	3	292	0.00	29.953 
12:20	77.7	77.7	78.9	48	56.4	1	3	292	0.00	29.953 
12:25	77.9	77.9	78.9	45	54.8	0	2	292	0.00	29.953 
12:30	78.3	78.3	79.2	46	55.8	1	3	292	0.00	29.952 
12:35	78.1	78.1	79.3	49	57.4	1	3	292	0.00	29.952 
12:40	77.9	77.9	79.0	46	55.4	1	3	292	0.00	29.952 
12:45	78.3	78.3	79.1	43	53.9	0	1	45	0.00	29.951 
12:50	78.5	78.5	79.1	42	53.5	1	5	292	0.00	29.951 
12:55	78.6	78.6	79.2	42	53.6	1	3	315	0.00	29.951 
13:00	78.5	78.5	79.1	42	53.5	1	4	315	0.00	29.947 
13:05	78.5	78.5	79.2	44	54.7	1	4	315	0.00	29.947 
13:10	78.5	78.5	79.2	44	54.7	1	3	315	0.00	29.947 
13:15	78.5	78.5	79.2	43	54.1	1	4	292	0.00	29.943 
13:20	78.5	78.5	79.1	41	52.8	2	4	292	0.00	29.943 
13:25	78.5	78.5	79.1	42	53.5	2	4	292	0.00	29.943 
13:30	78.6	78.6	79.2	43	54.2	1	4	292	0.00	29.943 
13:35	78.8	78.8	79.2	41	53.1	2	4	292	0.00	29.943 
13:40	78.5	78.5	79.1	41	52.8	1	4	292	0.00	29.943 
13:45	78.1	78.1	78.8	41	52.5	2	5	292	0.00	29.950 
13:50	78.5	78.5	79.3	45	55.4	0	4	292	0.00	29.950 
13:55	78.5	78.5	79.0	40	52.1	2	5	315	0.00	29.950 
14:00	78.6	78.6	79.4	45	55.5	1	4	338	0.00	29.940 
14:05	79.0	79.0	79.6	45	55.8	1	3	315	0.00	29.940 
14:10	79.0	79.0	79.4	42	53.9	2	6	315	0.00	29.940 
14:15	79.2	79.2	79.5	41	53.4	1	3	315	0.00	29.940 
14:20	79.2	79.2	79.5	42	54.1	1	3	338	0.00	29.940 
14:25	79.6	79.6	80.0	45	56.4	0	2	338	0.00	29.940 
14:30	79.8	79.8	79.9	41	54.0	1	4	315	0.00	29.936 
14:35	79.2	79.2	79.7	44	55.4	2	4	292	0.00	29.936 
14:40	78.8	78.8	79.3	42	53.7	2	5	315	0.00	29.936 
14:45	78.8	78.8	79.4	43	54.4	1	3	315	0.00	29.936 
14:50	78.8	78.8	79.5	45	55.6	1	3	315	0.00	29.936 
14:55	78.6	78.6	79.4	46	56.1	1	3	315	0.00	29.936 
15:00	78.3	78.3	79.1	44	54.6	2	4	315	0.00	29.933 
15:05	78.5	78.5	79.6	50	58.3	1	3	315	0.00	29.933 
15:10	79.0	79.0	79.4	42	53.9	0	3	315	0.00	29.933 
15:15	79.0	79.0	79.6	44	55.2	0	3	315	0.00	29.929 
15:20	78.6	78.6	79.4	46	56.1	0	2	315	0.00	29.929 
15:25	78.8	78.8	79.6	47	56.8	0	3	315	0.00	29.929 
15:30	79.0	79.0	79.5	43	54.6	1	5	270	0.00	29.929 
15:35	78.8	78.8	79.4	44	55.0	1	3	270	0.00	29.929 
15:40	79.2	79.2	79.6	43	54.7	1	3	270	0.00	29.929 
15:45	79.8	79.8	80.0	42	54.6	1	4	270	0.00	29.925 
15:50	79.9	79.9	79.9	41	54.1	1	5	270	0.00	29.925 
15:55	79.6	79.6	80.0	44	55.7	1	2	338	0.00	29.925 
16:00	79.8	79.8	79.8	40	53.3	1	4	338	0.00	29.921 
16:05	79.9	79.9	79.9	41	54.1	1	3	338	0.00	29.921 
16:10	80.3	80.3	80.4	43	55.7	1	3	338	0.00	29.921 
16:15	80.1	80.1	80.2	42	54.9	2	3	315	0.00	29.924 
16:20	79.9	79.9	80.0	42	54.7	1	3	315	0.00	29.924 
16:25	79.9	79.9	80.1	43	55.4	1	2	315	0.00	29.924 
16:30	80.1	80.1	80.2	42	54.9	2	4	315	0.00	29.918 
16:35	80.3	80.3	80.3	42	55.1	2	4	315	0.00	29.918 
16:40	80.3	80.3	80.3	42	55.1	2	3	315	0.00	29.918 
16:45	80.7	80.7	80.6	42	55.4	1	3	315	0.00	29.915 
16:50	80.7	80.7	80.5	41	54.8	2	4	315	0.00	29.915 
16:55	80.7	80.7	80.7	43	56.1	0	2	315	0.00	29.915 
17:00	80.7	80.7	80.4	40	54.1	2	3	315	0.00	29.912 
17:05	80.5	80.5	80.6	43	55.9	0	2	315	0.00	29.912 
17:10	80.7	80.7	80.7	43	56.1	1	3	315	0.00	29.912 
17:15	80.9	80.9	81.0	44	56.9	1	3	315	0.00	29.912 
17:20	80.9	80.9	80.7	41	55.0	2	3	315	0.00	29.912 
17:25	81.1	81.1	80.8	41	55.1	0	2	315	0.00	29.912 
17:30	81.2	81.2	81.1	43	56.5	0	1	315	0.00	29.909 
17:35	81.4	81.4	81.0	40	54.7	1	4	315	0.00	29.909 
17:40	81.6	81.6	81.0	39	54.2	1	3	315	0.00	29.909 
17:45	81.2	81.2	80.9	41	55.2	1	4	315	0.00	29.910 
17:50	80.3	80.3	80.1	40	53.8	1	5	292	0.00	29.910 
17:55	79.6	79.6	79.8	42	54.5	1	4	315	0.00	29.910 
18:00	79.2	79.2	79.7	44	55.4	1	3	315	0.00	29.913 
18:05	79.6	79.6	80.0	44	55.7	1	2	315	0.00	29.913 
18:10	79.8	79.8	80.0	43	55.3	1	3	315	0.00	29.913 
18:15	79.6	79.6	80.0	44	55.7	1	3	315	0.00	29.913 
18:20	79.4	79.4	79.8	44	55.6	1	3	315	0.00	29.913 
18:25	79.2	79.2	79.7	44	55.4	1	3	315	0.00	29.913 
18:30	79.4	79.4	79.9	45	56.2	1	3	315	0.00	29.913 
18:35	79.4	79.4	79.9	45	56.2	0	2	315	0.00	29.913 
18:40	79.2	79.2	79.8	45	56.0	1	3	315	0.00	29.913 
18:45	79.0	79.0	79.6	44	55.2	1	4	315	0.00	29.909 
18:50	78.8	78.8	79.5	45	55.6	0	2	315	0.00	29.909 
18:55	78.5	78.5	79.3	45	55.4	1	2	315	0.00	29.909 
19:00	78.1	78.1	79.1	46	55.6	0	2	315	0.00	29.912 
19:05	77.9	77.9	79.0	47	56.0	0	1	315	0.00	29.912 
19:10	77.9	77.9	79.1	48	56.6	0	1	315	0.00	29.912 
19:15	77.9	77.9	79.0	47	56.0	0	2	315	0.00	29.910 
19:20	77.9	77.9	79.0	47	56.0	0	1	315	0.00	29.910 
19:25	77.7	77.7	78.9	47	55.8	0	2	315	0.00	29.910 
19:30	77.7	77.7	78.9	47	55.8	0	1	315	0.00	29.909 
19:35	77.7	77.7	78.9	47	55.8	0	1	315	0.00	29.909 
19:40	77.7	77.7	78.9	48	56.4	0	2	315	0.00	29.909 
19:45	77.6	77.6	78.9	48	56.3	0	1	315	0.00	29.910 
19:50	77.4	77.4	78.8	49	56.7	0	2	315	0.00	29.910 
19:55	77.4	77.4	78.8	50	57.3	0	1	315	0.00	29.910 
20:00	77.2	77.2	78.7	50	57.1	0	0	---	0.00	29.909 
20:05	77.2	77.2	78.7	50	57.1	0	1	315	0.00	29.909 
20:10	77.0	77.0	78.6	50	56.9	0	0	---	0.00	29.909 
20:15	76.8	76.8	78.5	52	57.8	0	0	---	0.00	29.903 
20:20	76.8	76.8	78.5	51	57.3	0	0	---	0.00	29.903 
20:25	76.7	76.7	78.5	52	57.7	0	0	---	0.00	29.903 
20:30	76.7	76.7	78.5	52	57.7	0	0	---	0.00	29.903 
20:35	76.7	76.7	78.5	52	57.7	0	1	315	0.00	29.903 
20:40	76.5	76.5	78.4	52	57.5	0	0	---	0.00	29.903 
20:45	76.5	76.5	78.4	53	58.1	0	0	---	0.00	29.903 
20:50	76.3	76.3	78.3	54	58.4	0	0	---	0.00	29.903 
20:55	76.0	76.0	78.1	55	58.6	0	0	---	0.00	29.903 
21:00	75.8	75.8	78.0	55	58.5	0	0	---	0.00	29.907 
21:05	75.4	75.4	77.7	56	58.6	0	0	---	0.00	29.907 
21:10	75.1	75.1	77.5	57	58.8	0	0	---	0.00	29.907 
21:15	74.7	74.7	74.7	59	59.4	0	0	---	0.00	29.902 
21:20	74.4	74.4	74.4	60	59.6	0	0	---	0.00	29.902 
21:25	73.9	73.9	73.9	60	59.1	0	0	---	0.00	29.902 
21:30	73.3	73.3	73.3	61	59.0	0	0	---	0.00	29.903 
21:35	73.0	73.0	73.0	63	59.6	0	0	---	0.00	29.903 
21:40	72.5	72.5	72.5	64	59.6	0	0	---	0.00	29.903 
21:45	72.1	72.1	72.1	65	59.7	0	0	---	0.00	29.906 
21:50	71.6	71.6	71.6	66	59.6	0	0	---	0.00	29.906 
21:55	71.3	71.3	71.3	69	60.6	0	0	---	0.00	29.906 
22:00	70.9	70.9	70.9	70	60.6	0	0	---	0.00	29.919 
22:05	70.8	70.8	70.8	71	60.9	0	1	315	0.00	29.919 
22:10	70.6	70.6	70.6	72	61.1	0	0	---	0.00	29.919 
22:15	70.6	70.6	70.6	70	60.3	0	0	---	0.00	29.923 
22:20	70.8	70.8	70.8	69	60.1	0	1	315	0.00	29.923 
22:25	70.9	70.9	70.9	69	60.2	0	0	---	0.00	29.923 
22:30	70.8	70.8	70.8	69	60.1	0	0	---	0.00	29.927 
22:35	70.8	70.8	70.8	69	60.1	0	0	---	0.00	29.927 
22:40	70.4	70.4	70.4	70	60.1	0	0	---	0.00	29.927 
22:45	70.3	70.3	70.3	71	60.4	0	0	---	0.00	29.933 
22:50	69.9	69.9	69.9	71	60.1	0	0	---	0.00	29.933 
22:55	69.6	69.6	69.6	72	60.2	0	0	---	0.00	29.933 
23:00	69.4	69.4	69.4	73	60.4	0	0	---	0.00	29.937 
23:05	69.1	69.1	69.1	73	60.1	0	0	---	0.00	29.937 
23:10	68.9	68.9	68.9	74	60.3	0	0	---	0.00	29.937 
23:15	68.6	68.6	68.6	75	60.3	0	0	---	0.00	29.934 
23:20	68.4	68.4	68.4	75	60.2	0	0	---	0.00	29.934 
23:25	68.1	68.1	68.1	75	59.9	0	0	---	0.00	29.934 
23:30	67.9	67.9	67.9	76	60.0	0	0	---	0.00	29.937 
23:35	67.6	67.6	67.6	77	60.1	0	0	---	0.00	29.937 
23:40	67.3	67.3	67.3	77	59.8	0	0	---	0.00	29.937 
23:45	67.1	67.1	67.1	77	59.6	0	0	---	0.00	29.941 
23:50	66.9	66.9	66.9	78	59.8	0	0	---	0.00	29.941 
23:55	66.8	66.8	66.8	79	60.1	0	0	---	0.00	29.941 

CoCoRaHS
IN-AL-39
A2 Web Hosting
Creative Commons License
GoDaddy
search engine by freefind advanced

loaded 2018-11-13 23:19:20 • last modified 2010-11-18 10:43:29
Privacy PolicyDisclaimer
• wx.awcolley.com is powered by PmWiki v.2002016 •
• all content (unless otherwise noted) © 2018 A W Colley